aviador You're here:

OIMQ Decoded Metar

KASHMAR in IRAN
Report Time2017-08-21 13:00:00
UTC Time2017-08-21 13:49:01
Flight Rules vfr VFR
Wind120° at 16 kt
W.Rank120° ranks 1
Current wind is above 120° avg. (7.5)
Visibility9999 m
Phenomena:N/A
Clouds:N/A
Expected CloudBase > 14,000 ft AGL from Temp-Dew spread
CeilingNone
Temp33°C
Dew Point-2°C (10% RH)
Heat Index30.6°C
AAT24.9°C
QNH1011 hPa
Raw Report
METAR OIMQ 211300Z 12016KT CAVOK 33/M02 Q1011=

Extra information for OIMQ:More info

Metar Taf Metar & Taf Last 4 Metars F.Rules Stats Wind Profile Meteogram Temp Stats Metar ALERT Operation Metar Decoded Social comments